sensor_id;sensor_type;location;lat;lon;timestamp;P1;durP1;ratioP1;P2;durP2;ratioP2
20022;SDS011;10172;42.054;24.546;2024-01-16T00:01:17;32.03;;;18.85;;
20022;SDS011;10172;42.054;24.546;2024-01-16T00:03:43;37.53;;;21.38;;
20022;SDS011;10172;42.054;24.546;2024-01-16T00:06:09;34.25;;;19.90;;
20022;SDS011;10172;42.054;24.546;2024-01-16T00:08:34;36.08;;;20.83;;
20022;SDS011;10172;42.054;24.546;2024-01-16T00:11:01;38.33;;;21.52;;
20022;SDS011;10172;42.054;24.546;2024-01-16T00:13:27;44.53;;;23.58;;
20022;SDS011;10172;42.054;24.546;2024-01-16T00:15:52;39.30;;;22.60;;
20022;SDS011;10172;42.054;24.546;2024-01-16T00:18:17;42.03;;;23.92;;
20022;SDS011;10172;42.054;24.546;2024-01-16T00:20:43;34.83;;;20.00;;
20022;SDS011;10172;42.054;24.546;2024-01-16T00:23:09;39.03;;;22.83;;
20022;SDS011;10172;42.054;24.546;2024-01-16T00:25:35;33.03;;;20.05;;
20022;SDS011;10172;42.054;24.546;2024-01-16T00:28:01;35.63;;;19.98;;
20022;SDS011;10172;42.054;24.546;2024-01-16T00:30:26;32.08;;;19.55;;
20022;SDS011;10172;42.054;24.546;2024-01-16T00:32:52;35.88;;;20.30;;
20022;SDS011;10172;42.054;24.546;2024-01-16T00:35:17;32.67;;;19.08;;
20022;SDS011;10172;42.054;24.546;2024-01-16T00:37:43;31.33;;;18.10;;
20022;SDS011;10172;42.054;24.546;2024-01-16T00:40:08;32.10;;;18.95;;
20022;SDS011;10172;42.054;24.546;2024-01-16T00:42:34;34.75;;;20.10;;
20022;SDS011;10172;42.054;24.546;2024-01-16T00:45:00;31.65;;;19.30;;
20022;SDS011;10172;42.054;24.546;2024-01-16T00:47:25;33.55;;;19.52;;
20022;SDS011;10172;42.054;24.546;2024-01-16T00:49:51;37.40;;;17.80;;
20022;SDS011;10172;42.054;24.546;2024-01-16T00:52:16;36.22;;;19.10;;
20022;SDS011;10172;42.054;24.546;2024-01-16T00:54:44;34.63;;;19.45;;
20022;SDS011;10172;42.054;24.546;2024-01-16T00:57:10;33.58;;;16.58;;
20022;SDS011;10172;42.054;24.546;2024-01-16T00:59:36;35.42;;;19.48;;
20022;SDS011;10172;42.054;24.546;2024-01-16T01:02:02;33.58;;;19.10;;
20022;SDS011;10172;42.054;24.546;2024-01-16T01:04:28;33.95;;;19.35;;
20022;SDS011;10172;42.054;24.546;2024-01-16T01:06:54;31.52;;;19.15;;
20022;SDS011;10172;42.054;24.546;2024-01-16T01:09:19;31.80;;;16.08;;
20022;SDS011;10172;42.054;24.546;2024-01-16T01:11:45;34.47;;;17.67;;
20022;SDS011;10172;42.054;24.546;2024-01-16T01:14:10;33.50;;;18.27;;
20022;SDS011;10172;42.054;24.546;2024-01-16T01:16:35;30.88;;;17.80;;
20022;SDS011;10172;42.054;24.546;2024-01-16T01:19:01;26.88;;;15.70;;
20022;SDS011;10172;42.054;24.546;2024-01-16T01:21:26;28.55;;;17.33;;
20022;SDS011;10172;42.054;24.546;2024-01-16T01:23:52;28.30;;;16.88;;
20022;SDS011;10172;42.054;24.546;2024-01-16T01:26:17;24.73;;;12.55;;
20022;SDS011;10172;42.054;24.546;2024-01-16T01:28:45;28.75;;;15.18;;
20022;SDS011;10172;42.054;24.546;2024-01-16T01:31:11;29.58;;;17.23;;
20022;SDS011;10172;42.054;24.546;2024-01-16T01:33:37;27.85;;;15.38;;
20022;SDS011;10172;42.054;24.546;2024-01-16T01:36:03;27.05;;;14.00;;
20022;SDS011;10172;42.054;24.546;2024-01-16T01:38:28;25.25;;;14.07;;
20022;SDS011;10172;42.054;24.546;2024-01-16T01:40:54;26.27;;;13.05;;
20022;SDS011;10172;42.054;24.546;2024-01-16T01:43:20;27.88;;;15.02;;
20022;SDS011;10172;42.054;24.546;2024-01-16T01:45:47;24.02;;;12.63;;
20022;SDS011;10172;42.054;24.546;2024-01-16T01:48:38;24.85;;;13.27;;
20022;SDS011;10172;42.054;24.546;2024-01-16T01:51:05;22.98;;;13.93;;
20022;SDS011;10172;42.054;24.546;2024-01-16T01:53:32;14.40;;;8.68;;
20022;SDS011;10172;42.054;24.546;2024-01-16T01:55:59;20.77;;;10.30;;
20022;SDS011;10172;42.054;24.546;2024-01-16T01:58:26;20.15;;;11.73;;
20022;SDS011;10172;42.054;24.546;2024-01-16T02:00:52;24.33;;;11.68;;
20022;SDS011;10172;42.054;24.546;2024-01-16T02:03:18;30.33;;;14.85;;
20022;SDS011;10172;42.054;24.546;2024-01-16T02:05:45;22.80;;;13.68;;
20022;SDS011;10172;42.054;24.546;2024-01-16T02:08:11;21.70;;;12.75;;
20022;SDS011;10172;42.054;24.546;2024-01-16T02:10:37;22.52;;;11.00;;
20022;SDS011;10172;42.054;24.546;2024-01-16T02:13:04;19.65;;;11.00;;
20022;SDS011;10172;42.054;24.546;2024-01-16T02:15:29;18.63;;;10.65;;
20022;SDS011;10172;42.054;24.546;2024-01-16T02:17:56;16.77;;;9.25;;
20022;SDS011;10172;42.054;24.546;2024-01-16T02:20:22;17.85;;;10.65;;
20022;SDS011;10172;42.054;24.546;2024-01-16T02:22:47;18.50;;;10.32;;
20022;SDS011;10172;42.054;24.546;2024-01-16T02:25:18;18.20;;;10.82;;
20022;SDS011;10172;42.054;24.546;2024-01-16T02:27:43;22.85;;;13.73;;
20022;SDS011;10172;42.054;24.546;2024-01-16T02:30:08;16.20;;;9.13;;
20022;SDS011;10172;42.054;24.546;2024-01-16T02:32:35;21.48;;;12.50;;
20022;SDS011;10172;42.054;24.546;2024-01-16T02:35:00;15.10;;;8.68;;
20022;SDS011;10172;42.054;24.546;2024-01-16T02:37:25;18.33;;;9.25;;
20022;SDS011;10172;42.054;24.546;2024-01-16T02:39:51;13.95;;;7.78;;
20022;SDS011;10172;42.054;24.546;2024-01-16T02:42:16;16.10;;;9.57;;
20022;SDS011;10172;42.054;24.546;2024-01-16T02:44:41;15.80;;;7.65;;
20022;SDS011;10172;42.054;24.546;2024-01-16T02:47:07;15.35;;;8.38;;
20022;SDS011;10172;42.054;24.546;2024-01-16T02:49:32;15.43;;;8.27;;
20022;SDS011;10172;42.054;24.546;2024-01-16T02:51:58;13.95;;;6.78;;
20022;SDS011;10172;42.054;24.546;2024-01-16T02:54:23;11.43;;;6.25;;
20022;SDS011;10172;42.054;24.546;2024-01-16T02:56:49;13.65;;;7.13;;
20022;SDS011;10172;42.054;24.546;2024-01-16T02:59:14;12.77;;;7.45;;
20022;SDS011;10172;42.054;24.546;2024-01-16T03:01:40;6.78;;;4.38;;
20022;SDS011;10172;42.054;24.546;2024-01-16T03:04:06;14.77;;;7.18;;
20022;SDS011;10172;42.054;24.546;2024-01-16T03:06:31;12.88;;;6.82;;
20022;SDS011;10172;42.054;24.546;2024-01-16T03:08:56;10.90;;;5.63;;
20022;SDS011;10172;42.054;24.546;2024-01-16T03:11:22;10.10;;;5.03;;
20022;SDS011;10172;42.054;24.546;2024-01-16T03:13:47;10.43;;;5.50;;
20022;SDS011;10172;42.054;24.546;2024-01-16T03:16:14;11.80;;;6.20;;
20022;SDS011;10172;42.054;24.546;2024-01-16T03:18:40;13.13;;;6.75;;
20022;SDS011;10172;42.054;24.546;2024-01-16T03:21:06;11.73;;;6.63;;
20022;SDS011;10172;42.054;24.546;2024-01-16T03:23:32;13.98;;;6.80;;
20022;SDS011;10172;42.054;24.546;2024-01-16T03:25:58;10.40;;;7.38;;
20022;SDS011;10172;42.054;24.546;2024-01-16T03:28:23;13.35;;;6.97;;
20022;SDS011;10172;42.054;24.546;2024-01-16T03:30:49;10.90;;;5.75;;
20022;SDS011;10172;42.054;24.546;2024-01-16T03:33:14;8.25;;;4.60;;
20022;SDS011;10172;42.054;24.546;2024-01-16T03:35:39;11.02;;;6.03;;
20022;SDS011;10172;42.054;24.546;2024-01-16T03:38:05;11.60;;;6.40;;
20022;SDS011;10172;42.054;24.546;2024-01-16T03:40:30;8.60;;;4.28;;
20022;SDS011;10172;42.054;24.546;2024-01-16T03:42:59;10.85;;;6.85;;
20022;SDS011;10172;42.054;24.546;2024-01-16T03:45:27;11.32;;;6.00;;
20022;SDS011;10172;42.054;24.546;2024-01-16T03:47:53;6.85;;;3.40;;
20022;SDS011;10172;42.054;24.546;2024-01-16T03:50:18;11.27;;;5.60;;
20022;SDS011;10172;42.054;24.546;2024-01-16T03:52:43;10.02;;;5.97;;
20022;SDS011;10172;42.054;24.546;2024-01-16T03:55:09;9.23;;;5.40;;
20022;SDS011;10172;42.054;24.546;2024-01-16T03:57:34;9.20;;;6.35;;
20022;SDS011;10172;42.054;24.546;2024-01-16T04:00:00;9.10;;;5.72;;
20022;SDS011;10172;42.054;24.546;2024-01-16T04:02:25;11.75;;;7.20;;
20022;SDS011;10172;42.054;24.546;2024-01-16T04:04:50;5.95;;;4.80;;
20022;SDS011;10172;42.054;24.546;2024-01-16T04:07:16;9.77;;;5.82;;
20022;SDS011;10172;42.054;24.546;2024-01-16T04:09:44;8.23;;;3.92;;
20022;SDS011;10172;42.054;24.546;2024-01-16T04:12:09;7.13;;;4.22;;
20022;SDS011;10172;42.054;24.546;2024-01-16T04:14:36;8.50;;;4.97;;
20022;SDS011;10172;42.054;24.546;2024-01-16T04:17:01;7.43;;;4.13;;
20022;SDS011;10172;42.054;24.546;2024-01-16T04:19:27;10.13;;;5.00;;
20022;SDS011;10172;42.054;24.546;2024-01-16T04:21:53;6.75;;;4.28;;
20022;SDS011;10172;42.054;24.546;2024-01-16T04:24:18;8.15;;;5.03;;
20022;SDS011;10172;42.054;24.546;2024-01-16T04:26:43;8.13;;;5.32;;
20022;SDS011;10172;42.054;24.546;2024-01-16T04:29:09;6.28;;;3.65;;
20022;SDS011;10172;42.054;24.546;2024-01-16T04:31:39;8.38;;;5.35;;
20022;SDS011;10172;42.054;24.546;2024-01-16T04:34:06;8.23;;;5.45;;
20022;SDS011;10172;42.054;24.546;2024-01-16T04:36:31;7.68;;;4.05;;
20022;SDS011;10172;42.054;24.546;2024-01-16T04:38:57;6.32;;;3.78;;
20022;SDS011;10172;42.054;24.546;2024-01-16T04:41:23;8.43;;;4.53;;
20022;SDS011;10172;42.054;24.546;2024-01-16T04:43:48;7.95;;;4.03;;
20022;SDS011;10172;42.054;24.546;2024-01-16T04:46:15;5.30;;;3.45;;
20022;SDS011;10172;42.054;24.546;2024-01-16T04:48:41;6.22;;;3.63;;
20022;SDS011;10172;42.054;24.546;2024-01-16T04:51:07;7.50;;;3.63;;
20022;SDS011;10172;42.054;24.546;2024-01-16T04:53:33;5.50;;;2.75;;
20022;SDS011;10172;42.054;24.546;2024-01-16T04:55:58;5.90;;;4.00;;
20022;SDS011;10172;42.054;24.546;2024-01-16T04:58:24;5.63;;;3.28;;
20022;SDS011;10172;42.054;24.546;2024-01-16T05:00:49;6.07;;;3.75;;
20022;SDS011;10172;42.054;24.546;2024-01-16T05:03:14;7.78;;;3.33;;
20022;SDS011;10172;42.054;24.546;2024-01-16T05:05:40;9.23;;;5.47;;
20022;SDS011;10172;42.054;24.546;2024-01-16T05:08:06;7.82;;;4.22;;
20022;SDS011;10172;42.054;24.546;2024-01-16T05:10:31;4.78;;;2.85;;
20022;SDS011;10172;42.054;24.546;2024-01-16T05:12:57;5.13;;;2.60;;
20022;SDS011;10172;42.054;24.546;2024-01-16T05:15:22;4.07;;;2.78;;
20022;SDS011;10172;42.054;24.546;2024-01-16T05:17:48;8.30;;;4.18;;
20022;SDS011;10172;42.054;24.546;2024-01-16T05:20:13;84.57;;;30.08;;
20022;SDS011;10172;42.054;24.546;2024-01-16T05:22:38;25.13;;;11.45;;
20022;SDS011;10172;42.054;24.546;2024-01-16T05:25:04;14.93;;;7.40;;
20022;SDS011;10172;42.054;24.546;2024-01-16T05:27:32;21.55;;;8.50;;
20022;SDS011;10172;42.054;24.546;2024-01-16T05:29:57;9.88;;;4.97;;
20022;SDS011;10172;42.054;24.546;2024-01-16T05:32:23;15.75;;;6.28;;
20022;SDS011;10172;42.054;24.546;2024-01-16T05:34:48;15.75;;;8.65;;
20022;SDS011;10172;42.054;24.546;2024-01-16T05:37:14;19.25;;;10.80;;
20022;SDS011;10172;42.054;24.546;2024-01-16T05:39:39;15.93;;;8.20;;
20022;SDS011;10172;42.054;24.546;2024-01-16T05:42:05;12.95;;;8.82;;
20022;SDS011;10172;42.054;24.546;2024-01-16T05:44:31;7.70;;;4.55;;
20022;SDS011;10172;42.054;24.546;2024-01-16T05:46:56;9.05;;;5.28;;
20022;SDS011;10172;42.054;24.546;2024-01-16T05:49:22;6.25;;;3.10;;
20022;SDS011;10172;42.054;24.546;2024-01-16T05:51:47;5.65;;;3.42;;
20022;SDS011;10172;42.054;24.546;2024-01-16T05:54:12;5.03;;;3.38;;
20022;SDS011;10172;42.054;24.546;2024-01-16T05:56:38;4.75;;;3.13;;
20022;SDS011;10172;42.054;24.546;2024-01-16T05:59:03;6.00;;;3.28;;
20022;SDS011;10172;42.054;24.546;2024-01-16T06:01:29;4.97;;;2.72;;
20022;SDS011;10172;42.054;24.546;2024-01-16T06:03:54;5.90;;;3.03;;
20022;SDS011;10172;42.054;24.546;2024-01-16T06:06:20;5.25;;;3.00;;
20022;SDS011;10172;42.054;24.546;2024-01-16T06:08:45;3.35;;;2.40;;
20022;SDS011;10172;42.054;24.546;2024-01-16T06:11:11;4.93;;;2.65;;
20022;SDS011;10172;42.054;24.546;2024-01-16T06:13:37;6.22;;;3.20;;
20022;SDS011;10172;42.054;24.546;2024-01-16T06:16:02;5.60;;;2.80;;
20022;SDS011;10172;42.054;24.546;2024-01-16T06:18:28;6.55;;;3.60;;
20022;SDS011;10172;42.054;24.546;2024-01-16T06:20:53;4.50;;;2.67;;
20022;SDS011;10172;42.054;24.546;2024-01-16T06:23:19;5.05;;;2.88;;
20022;SDS011;10172;42.054;24.546;2024-01-16T06:25:44;6.05;;;3.25;;
20022;SDS011;10172;42.054;24.546;2024-01-16T06:28:10;6.47;;;4.13;;
20022;SDS011;10172;42.054;24.546;2024-01-16T06:30:36;7.80;;;3.47;;
20022;SDS011;10172;42.054;24.546;2024-01-16T06:33:02;5.55;;;3.25;;
20022;SDS011;10172;42.054;24.546;2024-01-16T06:35:27;5.30;;;2.78;;
20022;SDS011;10172;42.054;24.546;2024-01-16T06:37:53;5.20;;;2.55;;
20022;SDS011;10172;42.054;24.546;2024-01-16T06:40:18;9.30;;;5.20;;
20022;SDS011;10172;42.054;24.546;2024-01-16T06:42:43;9.13;;;5.20;;
20022;SDS011;10172;42.054;24.546;2024-01-16T06:45:09;4.97;;;2.90;;
20022;SDS011;10172;42.054;24.546;2024-01-16T06:47:34;8.73;;;5.03;;
20022;SDS011;10172;42.054;24.546;2024-01-16T06:50:00;7.25;;;4.05;;
20022;SDS011;10172;42.054;24.546;2024-01-16T06:52:25;10.95;;;6.75;;
20022;SDS011;10172;42.054;24.546;2024-01-16T06:54:50;6.38;;;3.22;;
20022;SDS011;10172;42.054;24.546;2024-01-16T06:57:16;6.05;;;3.85;;
20022;SDS011;10172;42.054;24.546;2024-01-16T06:59:41;13.70;;;6.18;;
20022;SDS011;10172;42.054;24.546;2024-01-16T07:02:06;6.88;;;3.30;;
20022;SDS011;10172;42.054;24.546;2024-01-16T07:04:33;8.10;;;3.80;;
20022;SDS011;10172;42.054;24.546;2024-01-16T07:06:58;7.07;;;3.80;;
20022;SDS011;10172;42.054;24.546;2024-01-16T07:09:24;8.23;;;3.97;;
20022;SDS011;10172;42.054;24.546;2024-01-16T07:11:50;4.85;;;2.28;;
20022;SDS011;10172;42.054;24.546;2024-01-16T07:14:16;19.55;;;7.63;;
20022;SDS011;10172;42.054;24.546;2024-01-16T07:16:41;14.85;;;5.63;;
20022;SDS011;10172;42.054;24.546;2024-01-16T07:19:08;5.25;;;3.03;;
20022;SDS011;10172;42.054;24.546;2024-01-16T07:21:33;4.15;;;2.72;;
20022;SDS011;10172;42.054;24.546;2024-01-16T07:23:59;10.02;;;4.85;;
20022;SDS011;10172;42.054;24.546;2024-01-16T07:26:24;8.73;;;4.20;;
20022;SDS011;10172;42.054;24.546;2024-01-16T07:28:50;10.88;;;4.38;;
20022;SDS011;10172;42.054;24.546;2024-01-16T07:31:15;5.40;;;2.63;;
20022;SDS011;10172;42.054;24.546;2024-01-16T07:33:43;6.70;;;4.13;;
20022;SDS011;10172;42.054;24.546;2024-01-16T07:36:09;7.00;;;3.85;;
20022;SDS011;10172;42.054;24.546;2024-01-16T07:38:37;7.90;;;3.78;;
20022;SDS011;10172;42.054;24.546;2024-01-16T07:41:03;9.75;;;5.63;;
20022;SDS011;10172;42.054;24.546;2024-01-16T07:43:29;3.42;;;1.85;;
20022;SDS011;10172;42.054;24.546;2024-01-16T07:45:55;6.35;;;3.15;;
20022;SDS011;10172;42.054;24.546;2024-01-16T07:48:20;4.80;;;2.92;;
20022;SDS011;10172;42.054;24.546;2024-01-16T07:50:47;6.53;;;3.17;;
20022;SDS011;10172;42.054;24.546;2024-01-16T07:53:13;5.00;;;2.83;;
20022;SDS011;10172;42.054;24.546;2024-01-16T07:55:38;3.75;;;2.83;;
20022;SDS011;10172;42.054;24.546;2024-01-16T07:58:04;6.78;;;4.15;;
20022;SDS011;10172;42.054;24.546;2024-01-16T08:00:30;7.43;;;5.10;;
20022;SDS011;10172;42.054;24.546;2024-01-16T08:02:55;6.50;;;4.85;;
20022;SDS011;10172;42.054;24.546;2024-01-16T08:05:21;6.47;;;3.15;;
20022;SDS011;10172;42.054;24.546;2024-01-16T08:07:50;3.83;;;2.90;;
20022;SDS011;10172;42.054;24.546;2024-01-16T08:10:16;3.85;;;2.40;;
20022;SDS011;10172;42.054;24.546;2024-01-16T08:12:41;4.72;;;3.00;;
20022;SDS011;10172;42.054;24.546;2024-01-16T08:15:06;4.30;;;3.58;;
20022;SDS011;10172;42.054;24.546;2024-01-16T08:17:35;7.93;;;5.65;;
20022;SDS011;10172;42.054;24.546;2024-01-16T08:20:00;5.05;;;3.70;;
20022;SDS011;10172;42.054;24.546;2024-01-16T08:22:26;4.38;;;3.72;;
20022;SDS011;10172;42.054;24.546;2024-01-16T08:24:51;8.50;;;7.60;;
20022;SDS011;10172;42.054;24.546;2024-01-16T08:27:16;5.90;;;5.30;;
20022;SDS011;10172;42.054;24.546;2024-01-16T08:29:44;4.30;;;3.20;;
20022;SDS011;10172;42.054;24.546;2024-01-16T08:32:09;4.50;;;2.95;;
20022;SDS011;10172;42.054;24.546;2024-01-16T08:34:35;5.32;;;3.75;;
20022;SDS011;10172;42.054;24.546;2024-01-16T08:37:00;5.90;;;3.60;;
20022;SDS011;10172;42.054;24.546;2024-01-16T08:39:25;6.70;;;3.03;;
20022;SDS011;10172;42.054;24.546;2024-01-16T08:41:53;11.55;;;3.90;;
20022;SDS011;10172;42.054;24.546;2024-01-16T08:44:19;9.43;;;3.95;;
20022;SDS011;10172;42.054;24.546;2024-01-16T08:46:44;8.98;;;4.18;;
20022;SDS011;10172;42.054;24.546;2024-01-16T08:49:11;11.68;;;4.15;;
20022;SDS011;10172;42.054;24.546;2024-01-16T08:51:36;10.25;;;5.63;;
20022;SDS011;10172;42.054;24.546;2024-01-16T08:54:02;17.65;;;6.40;;
20022;SDS011;10172;42.054;24.546;2024-01-16T08:56:27;10.80;;;3.67;;
20022;SDS011;10172;42.054;24.546;2024-01-16T08:58:53;8.07;;;3.33;;
20022;SDS011;10172;42.054;24.546;2024-01-16T09:01:18;6.70;;;3.10;;
20022;SDS011;10172;42.054;24.546;2024-01-16T09:03:45;4.72;;;2.25;;
20022;SDS011;10172;42.054;24.546;2024-01-16T09:06:12;4.15;;;2.47;;
20022;SDS011;10172;42.054;24.546;2024-01-16T09:08:37;2.30;;;1.10;;
20022;SDS011;10172;42.054;24.546;2024-01-16T09:11:03;2.97;;;1.25;;
20022;SDS011;10172;42.054;24.546;2024-01-16T09:13:28;6.35;;;3.30;;
20022;SDS011;10172;42.054;24.546;2024-01-16T09:15:53;5.43;;;2.80;;
20022;SDS011;10172;42.054;24.546;2024-01-16T09:18:19;2.78;;;1.17;;
20022;SDS011;10172;42.054;24.546;2024-01-16T09:20:44;4.78;;;1.10;;
20022;SDS011;10172;42.054;24.546;2024-01-16T09:23:10;4.95;;;2.80;;
20022;SDS011;10172;42.054;24.546;2024-01-16T09:25:35;4.80;;;2.10;;
20022;SDS011;10172;42.054;24.546;2024-01-16T09:28:01;11.20;;;6.88;;
20022;SDS011;10172;42.054;24.546;2024-01-16T09:30:27;0.88;;;0.65;;
20022;SDS011;10172;42.054;24.546;2024-01-16T09:32:52;3.30;;;1.83;;
20022;SDS011;10172;42.054;24.546;2024-01-16T09:35:18;7.55;;;3.55;;
20022;SDS011;10172;42.054;24.546;2024-01-16T09:37:43;2.22;;;1.25;;
20022;SDS011;10172;42.054;24.546;2024-01-16T09:40:09;5.30;;;2.47;;
20022;SDS011;10172;42.054;24.546;2024-01-16T09:42:35;6.78;;;3.13;;
20022;SDS011;10172;42.054;24.546;2024-01-16T09:45:01;11.13;;;5.80;;
20022;SDS011;10172;42.054;24.546;2024-01-16T09:47:28;7.35;;;3.63;;
20022;SDS011;10172;42.054;24.546;2024-01-16T09:49:57;4.28;;;2.55;;
20022;SDS011;10172;42.054;24.546;2024-01-16T09:52:24;1.83;;;1.30;;
20022;SDS011;10172;42.054;24.546;2024-01-16T09:54:50;1.92;;;0.90;;
20022;SDS011;10172;42.054;24.546;2024-01-16T09:57:15;1.38;;;0.80;;
20022;SDS011;10172;42.054;24.546;2024-01-16T09:59:47;8.18;;;3.92;;
20022;SDS011;10172;42.054;24.546;2024-01-16T10:02:13;22.45;;;10.40;;
20022;SDS011;10172;42.054;24.546;2024-01-16T10:04:39;5.85;;;2.58;;
20022;SDS011;10172;42.054;24.546;2024-01-16T10:07:09;6.88;;;3.40;;
20022;SDS011;10172;42.054;24.546;2024-01-16T10:09:35;20.15;;;8.57;;
20022;SDS011;10172;42.054;24.546;2024-01-16T10:12:01;4.13;;;2.42;;
20022;SDS011;10172;42.054;24.546;2024-01-16T10:14:28;3.10;;;1.50;;
20022;SDS011;10172;42.054;24.546;2024-01-16T10:16:54;3.50;;;1.60;;
20022;SDS011;10172;42.054;24.546;2024-01-16T10:19:53;2.72;;;1.50;;
20022;SDS011;10172;42.054;24.546;2024-01-16T10:22:22;2.45;;;1.73;;
20022;SDS011;10172;42.054;24.546;2024-01-16T10:24:50;3.67;;;2.55;;
20022;SDS011;10172;42.054;24.546;2024-01-16T10:27:28;4.53;;;1.88;;
20022;SDS011;10172;42.054;24.546;2024-01-16T10:29:56;4.68;;;2.38;;
20022;SDS011;10172;42.054;24.546;2024-01-16T10:32:29;2.40;;;1.60;;
20022;SDS011;10172;42.054;24.546;2024-01-16T10:35:09;2.15;;;1.50;;
20022;SDS011;10172;42.054;24.546;2024-01-16T10:40:21;1.45;;;1.15;;
20022;SDS011;10172;42.054;24.546;2024-01-16T10:43:03;2.55;;;1.50;;
20022;SDS011;10172;42.054;24.546;2024-01-16T10:45:29;1.00;;;0.85;;
20022;SDS011;10172;42.054;24.546;2024-01-16T10:48:05;3.63;;;1.70;;
20022;SDS011;10172;42.054;24.546;2024-01-16T10:50:32;2.72;;;1.33;;
20022;SDS011;10172;42.054;24.546;2024-01-16T10:53:07;1.88;;;1.15;;
20022;SDS011;10172;42.054;24.546;2024-01-16T10:55:49;1.83;;;1.15;;
20022;SDS011;10172;42.054;24.546;2024-01-16T10:58:16;1.40;;;1.00;;
20022;SDS011;10172;42.054;24.546;2024-01-16T11:00:46;1.42;;;1.08;;
20022;SDS011;10172;42.054;24.546;2024-01-16T11:03:19;3.40;;;1.73;;
20022;SDS011;10172;42.054;24.546;2024-01-16T11:05:53;2.97;;;1.55;;
20022;SDS011;10172;42.054;24.546;2024-01-16T11:08:19;1.42;;;0.73;;
20022;SDS011;10172;42.054;24.546;2024-01-16T11:10:45;2.10;;;1.10;;
20022;SDS011;10172;42.054;24.546;2024-01-16T11:13:14;5.30;;;2.42;;
20022;SDS011;10172;42.054;24.546;2024-01-16T11:15:40;2.78;;;1.50;;
20022;SDS011;10172;42.054;24.546;2024-01-16T11:18:07;36.28;;;16.88;;
20022;SDS011;10172;42.054;24.546;2024-01-16T11:20:34;1.52;;;1.25;;
20022;SDS011;10172;42.054;24.546;2024-01-16T11:23:01;1.25;;;1.00;;
20022;SDS011;10172;42.054;24.546;2024-01-16T11:25:31;0.82;;;0.60;;
20022;SDS011;10172;42.054;24.546;2024-01-16T11:28:07;10.90;;;4.18;;
20022;SDS011;10172;42.054;24.546;2024-01-16T11:30:37;5.40;;;2.70;;
20022;SDS011;10172;42.054;24.546;2024-01-16T11:33:02;15.82;;;7.32;;
20022;SDS011;10172;42.054;24.546;2024-01-16T11:35:36;10.75;;;5.50;;
20022;SDS011;10172;42.054;24.546;2024-01-16T11:38:21;4.88;;;2.95;;
20022;SDS011;10172;42.054;24.546;2024-01-16T11:40:47;3.40;;;2.03;;
20022;SDS011;10172;42.054;24.546;2024-01-16T11:45:57;3.92;;;1.90;;
20022;SDS011;10172;42.054;24.546;2024-01-16T11:48:23;3.78;;;1.95;;
20022;SDS011;10172;42.054;24.546;2024-01-16T11:50:49;1.70;;;1.20;;
20022;SDS011;10172;42.054;24.546;2024-01-16T11:53:30;3.35;;;2.00;;
20022;SDS011;10172;42.054;24.546;2024-01-16T12:01:52;3.35;;;1.88;;
20022;SDS011;10172;42.054;24.546;2024-01-16T12:04:18;3.83;;;1.55;;
20022;SDS011;10172;42.054;24.546;2024-01-16T12:06:46;3.97;;;1.40;;
20022;SDS011;10172;42.054;24.546;2024-01-16T12:09:25;4.03;;;1.98;;
20022;SDS011;10172;42.054;24.546;2024-01-16T12:12:00;3.92;;;2.35;;
20022;SDS011;10172;42.054;24.546;2024-01-16T12:14:27;4.30;;;2.05;;
20022;SDS011;10172;42.054;24.546;2024-01-16T12:17:07;4.30;;;2.25;;
20022;SDS011;10172;42.054;24.546;2024-01-16T12:19:34;6.45;;;3.10;;
20022;SDS011;10172;42.054;24.546;2024-01-16T12:22:00;5.50;;;2.50;;
20022;SDS011;10172;42.054;24.546;2024-01-16T12:24:25;7.72;;;3.25;;
20022;SDS011;10172;42.054;24.546;2024-01-16T12:26:51;3.30;;;1.73;;
20022;SDS011;10172;42.054;24.546;2024-01-16T12:29:17;6.25;;;2.80;;
20022;SDS011;10172;42.054;24.546;2024-01-16T12:31:43;4.10;;;1.40;;
20022;SDS011;10172;42.054;24.546;2024-01-16T12:34:09;9.43;;;3.45;;
20022;SDS011;10172;42.054;24.546;2024-01-16T12:36:34;5.05;;;2.47;;
20022;SDS011;10172;42.054;24.546;2024-01-16T12:39:00;18.73;;;11.20;;
20022;SDS011;10172;42.054;24.546;2024-01-16T12:41:28;1.42;;;0.90;;
20022;SDS011;10172;42.054;24.546;2024-01-16T12:43:58;2.38;;;0.90;;
20022;SDS011;10172;42.054;24.546;2024-01-16T12:46:23;1.13;;;0.93;;
20022;SDS011;10172;42.054;24.546;2024-01-16T12:48:49;2.72;;;1.00;;
20022;SDS011;10172;42.054;24.546;2024-01-16T12:51:21;4.75;;;2.70;;
20022;SDS011;10172;42.054;24.546;2024-01-16T12:53:49;1.17;;;0.70;;
20022;SDS011;10172;42.054;24.546;2024-01-16T12:56:17;2.80;;;1.30;;
20022;SDS011;10172;42.054;24.546;2024-01-16T12:58:45;3.00;;;1.27;;
20022;SDS011;10172;42.054;24.546;2024-01-16T13:03:46;4.03;;;2.03;;
20022;SDS011;10172;42.054;24.546;2024-01-16T13:06:16;4.72;;;2.00;;
20022;SDS011;10172;42.054;24.546;2024-01-16T13:08:43;2.67;;;1.83;;
20022;SDS011;10172;42.054;24.546;2024-01-16T13:11:09;2.72;;;1.40;;
20022;SDS011;10172;42.054;24.546;2024-01-16T13:13:35;3.22;;;1.35;;
20022;SDS011;10172;42.054;24.546;2024-01-16T13:16:01;4.80;;;2.97;;
20022;SDS011;10172;42.054;24.546;2024-01-16T13:18:30;2.30;;;2.10;;
20022;SDS011;10172;42.054;24.546;2024-01-16T13:20:57;0.95;;;0.77;;
20022;SDS011;10172;42.054;24.546;2024-01-16T13:23:23;1.80;;;1.05;;
20022;SDS011;10172;42.054;24.546;2024-01-16T13:25:52;2.22;;;1.20;;
20022;SDS011;10172;42.054;24.546;2024-01-16T13:28:19;6.55;;;2.53;;
20022;SDS011;10172;42.054;24.546;2024-01-16T13:30:46;2.53;;;1.92;;
20022;SDS011;10172;42.054;24.546;2024-01-16T13:33:12;4.88;;;2.22;;
20022;SDS011;10172;42.054;24.546;2024-01-16T13:35:38;2.78;;;1.70;;
20022;SDS011;10172;42.054;24.546;2024-01-16T13:38:05;7.90;;;4.20;;
20022;SDS011;10172;42.054;24.546;2024-01-16T13:40:31;4.38;;;1.75;;
20022;SDS011;10172;42.054;24.546;2024-01-16T13:42:58;4.10;;;2.30;;
20022;SDS011;10172;42.054;24.546;2024-01-16T13:45:24;1.70;;;0.90;;
20022;SDS011;10172;42.054;24.546;2024-01-16T13:47:49;2.75;;;1.15;;
20022;SDS011;10172;42.054;24.546;2024-01-16T13:50:14;1.98;;;1.02;;
20022;SDS011;10172;42.054;24.546;2024-01-16T13:52:40;1.52;;;0.75;;
20022;SDS011;10172;42.054;24.546;2024-01-16T13:55:06;2.97;;;1.65;;
20022;SDS011;10172;42.054;24.546;2024-01-16T13:57:32;2.65;;;1.30;;
20022;SDS011;10172;42.054;24.546;2024-01-16T13:59:59;2.33;;;1.42;;
20022;SDS011;10172;42.054;24.546;2024-01-16T14:02:25;4.22;;;2.22;;
20022;SDS011;10172;42.054;24.546;2024-01-16T14:04:51;1.75;;;1.00;;
20022;SDS011;10172;42.054;24.546;2024-01-16T14:07:16;2.88;;;1.30;;
20022;SDS011;10172;42.054;24.546;2024-01-16T14:09:42;3.85;;;1.58;;
20022;SDS011;10172;42.054;24.546;2024-01-16T14:12:07;2.67;;;1.10;;
20022;SDS011;10172;42.054;24.546;2024-01-16T14:14:33;1.92;;;0.98;;
20022;SDS011;10172;42.054;24.546;2024-01-16T14:16:59;9.80;;;7.95;;
20022;SDS011;10172;42.054;24.546;2024-01-16T14:19:25;4.60;;;2.13;;
20022;SDS011;10172;42.054;24.546;2024-01-16T14:21:53;5.65;;;2.58;;
20022;SDS011;10172;42.054;24.546;2024-01-16T14:24:18;4.03;;;1.67;;
20022;SDS011;10172;42.054;24.546;2024-01-16T14:26:44;3.20;;;2.15;;
20022;SDS011;10172;42.054;24.546;2024-01-16T14:29:10;4.30;;;2.40;;
20022;SDS011;10172;42.054;24.546;2024-01-16T14:31:36;7.72;;;5.25;;
20022;SDS011;10172;42.054;24.546;2024-01-16T14:34:01;3.17;;;1.83;;
20022;SDS011;10172;42.054;24.546;2024-01-16T14:36:28;9.13;;;4.88;;
20022;SDS011;10172;42.054;24.546;2024-01-16T14:38:54;2.83;;;1.95;;